createdAt,value
2017-05-06T00:01:17.574Z,0
2017-05-06T00:02:17.669Z,0
2017-05-06T00:03:17.605Z,0
2017-05-06T00:04:17.551Z,0
2017-05-06T00:05:17.481Z,0
2017-05-06T00:06:17.662Z,0
2017-05-06T00:07:17.049Z,0
2017-05-06T00:08:17.291Z,0
2017-05-06T00:09:17.238Z,0
2017-05-06T00:10:16.864Z,0
2017-05-06T00:11:16.801Z,0
2017-05-06T00:12:17.063Z,0
2017-05-06T00:13:16.983Z,0
2017-05-06T00:14:16.928Z,0
2017-05-06T00:15:16.859Z,0
2017-05-06T00:16:16.799Z,0
2017-05-06T00:17:16.118Z,0
2017-05-06T00:18:16.359Z,0
2017-05-06T00:19:16.615Z,0
2017-05-06T00:20:16.725Z,0
2017-05-06T00:21:16.489Z,0
2017-05-06T00:22:16.420Z,0
2017-05-06T00:23:16.368Z,0
2017-05-06T00:24:16.301Z,0
2017-05-06T00:25:16.261Z,0
2017-05-06T00:26:16.178Z,0
2017-05-06T00:27:16.118Z,0
2017-05-06T00:28:16.055Z,0
2017-05-06T00:29:15.987Z,0
2017-05-06T00:30:15.927Z,0
2017-05-06T00:31:15.554Z,0
2017-05-06T00:32:15.494Z,0
2017-05-06T00:33:15.428Z,0
2017-05-06T00:34:15.685Z,0
2017-05-06T00:35:14.993Z,0
2017-05-06T00:36:15.244Z,0
2017-05-06T00:37:15.184Z,0
2017-05-06T00:38:15.429Z,0
2017-05-06T00:39:15.372Z,0
2017-05-06T00:40:15.000Z,0
2017-05-06T00:41:15.305Z,0
2017-05-06T00:42:15.183Z,0
2017-05-06T00:43:14.503Z,0
2017-05-06T00:44:14.751Z,0
2017-05-06T00:45:15.002Z,0
2017-05-06T00:46:14.623Z,0
2017-05-06T00:47:14.875Z,0
2017-05-06T00:48:14.811Z,0
2017-05-06T00:49:14.747Z,0
2017-05-06T00:50:14.377Z,0
2017-05-06T00:51:14.831Z,0
2017-05-06T00:52:14.558Z,0
2017-05-06T00:53:14.505Z,0
2017-05-06T00:54:14.442Z,0
2017-05-06T00:55:14.374Z,0
2017-05-06T00:56:13.999Z,0
2017-05-06T00:57:14.249Z,0
2017-05-06T00:58:14.216Z,0
2017-05-06T00:59:14.126Z,0
2017-05-06T01:00:13.750Z,0
2017-05-06T01:01:14.003Z,0
2017-05-06T01:02:13.630Z,0
2017-05-06T01:03:13.895Z,0
2017-05-06T01:04:13.824Z,0
2017-05-06T01:05:13.753Z,0
2017-05-06T01:06:13.381Z,0
2017-05-06T01:07:13.315Z,0
2017-05-06T01:08:13.568Z,0
2017-05-06T01:09:13.512Z,0
2017-05-06T01:10:12.824Z,0
2017-05-06T01:11:13.377Z,0
2017-05-06T01:12:13.320Z,0
2017-05-06T01:13:13.254Z,0
2017-05-06T01:14:13.196Z,0
2017-05-06T01:15:13.130Z,0
2017-05-06T01:16:12.760Z,0
2017-05-06T01:17:13.009Z,0
2017-05-06T01:18:12.939Z,0
2017-05-06T01:19:12.571Z,0
2017-05-06T01:20:12.510Z,0
2017-05-06T01:21:12.447Z,0
2017-05-06T01:22:12.381Z,0
2017-05-06T01:23:12.329Z,0
2017-05-06T01:24:12.273Z,0
2017-05-06T01:25:11.894Z,0
2017-05-06T01:26:12.458Z,0
2017-05-06T01:27:12.083Z,0
2017-05-06T01:28:11.705Z,0
2017-05-06T01:29:12.269Z,0
2017-05-06T01:30:11.886Z,0
2017-05-06T01:31:12.142Z,0
2017-05-06T01:32:12.070Z,0
2017-05-06T01:33:12.010Z,0
2017-05-06T01:34:11.641Z,0
2017-05-06T01:35:11.885Z,0
2017-05-06T01:36:11.825Z,0
2017-05-06T01:37:11.459Z,0
2017-05-06T01:38:11.707Z,0
2017-05-06T01:39:11.636Z,0
2017-05-06T01:40:11.266Z,0
2017-05-06T01:41:10.902Z,0
2017-05-06T01:42:11.148Z,0
2017-05-06T01:43:11.085Z,0
2017-05-06T01:44:11.020Z,0
2017-05-06T01:45:11.263Z,0
2017-05-06T01:46:10.901Z,0
2017-05-06T01:47:10.836Z,0
2017-05-06T01:48:10.775Z,0
2017-05-06T01:49:11.018Z,0
2017-05-06T01:50:10.648Z,0
2017-05-06T01:51:10.279Z,0
2017-05-06T01:52:10.546Z,0
2017-05-06T01:53:10.771Z,0
2017-05-06T01:54:10.715Z,0
2017-05-06T01:55:10.338Z,0
2017-05-06T01:56:10.284Z,0
2017-05-06T01:57:10.218Z,0
2017-05-06T01:58:10.474Z,0
2017-05-06T01:59:10.093Z,0
2017-05-06T02:00:10.032Z,0
2017-05-06T02:01:09.962Z,0
2017-05-06T02:02:10.210Z,0
2017-05-06T02:03:09.844Z,0
2017-05-06T02:04:10.085Z,0
2017-05-06T02:05:09.716Z,0
2017-05-06T02:06:09.965Z,0
2017-05-06T02:07:09.899Z,0
2017-05-06T02:08:09.842Z,0
2017-05-06T02:09:09.781Z,0
2017-05-06T02:10:09.718Z,0
2017-05-06T02:11:09.652Z,0
2017-05-06T02:12:09.590Z,0
2017-05-06T02:13:09.524Z,0
2017-05-06T02:14:09.474Z,0
2017-05-06T02:15:09.412Z,0
2017-05-06T02:16:09.039Z,0
2017-05-06T02:17:08.982Z,0
2017-05-06T02:18:09.219Z,0
2017-05-06T02:19:09.166Z,0
2017-05-06T02:20:08.933Z,0
2017-05-06T02:21:09.032Z,0
2017-05-06T02:22:08.967Z,0
2017-05-06T02:23:08.911Z,0
2017-05-06T02:24:08.846Z,0
2017-05-06T02:25:08.791Z,0
2017-05-06T02:26:08.421Z,0
2017-05-06T02:27:08.660Z,0
2017-05-06T02:28:08.599Z,0
2017-05-06T02:29:08.547Z,0
2017-05-06T02:30:08.473Z,0
2017-05-06T02:31:08.419Z,0
2017-05-06T02:32:08.351Z,0
2017-05-06T02:33:08.666Z,0
2017-05-06T02:34:07.925Z,0
2017-05-06T02:35:08.157Z,0
2017-05-06T02:36:08.102Z,0
2017-05-06T02:37:07.733Z,0
2017-05-06T02:38:07.977Z,0
2017-05-06T02:39:07.914Z,0
2017-05-06T02:40:07.849Z,0
2017-05-06T02:41:07.789Z,0
2017-05-06T02:42:07.414Z,0
2017-05-06T02:43:07.668Z,0
2017-05-06T02:44:07.604Z,0
2017-05-06T02:45:07.544Z,0
2017-05-06T02:46:07.481Z,0
2017-05-06T02:47:07.416Z,0
2017-05-06T02:48:07.351Z,0
2017-05-06T02:49:07.292Z,0
2017-05-06T02:50:07.239Z,0
2017-05-06T02:51:07.171Z,0
2017-05-06T02:52:07.108Z,0
2017-05-06T02:53:06.743Z,0
2017-05-06T02:54:06.994Z,0
2017-05-06T02:55:06.920Z,0
2017-05-06T02:56:06.858Z,0
2017-05-06T02:57:06.797Z,0
2017-05-06T02:58:06.732Z,0
2017-05-06T02:59:06.677Z,0
2017-05-06T03:00:06.606Z,0
2017-05-06T03:01:06.544Z,0
2017-05-06T03:02:06.490Z,0
2017-05-06T03:03:06.113Z,0
2017-05-06T03:04:05.764Z,0
2017-05-06T03:05:06.298Z,0
2017-05-06T03:06:05.621Z,0
2017-05-06T03:07:05.868Z,0
2017-05-06T03:08:05.807Z,0
2017-05-06T03:09:05.741Z,0
2017-05-06T03:10:06.015Z,0
2017-05-06T03:11:05.926Z,0
2017-05-06T03:12:05.858Z,0
2017-05-06T03:13:05.805Z,0
2017-05-06T03:14:05.736Z,0
2017-05-06T03:15:05.465Z,0
2017-05-06T03:16:05.622Z,0
2017-05-06T03:17:05.551Z,0
2017-05-06T03:18:05.488Z,0
2017-05-06T03:19:05.436Z,0
2017-05-06T03:20:05.056Z,0
2017-05-06T03:21:05.310Z,0
2017-05-06T03:22:05.257Z,0
2017-05-06T03:23:05.177Z,0
2017-05-06T03:24:05.116Z,4
2017-05-06T03:25:05.062Z,4
2017-05-06T03:26:04.993Z,4
2017-05-06T03:27:04.930Z,4
2017-05-06T03:28:04.897Z,4
2017-05-06T03:29:04.807Z,4
2017-05-06T03:30:04.749Z,4
2017-05-06T03:31:04.373Z,4
2017-05-06T03:32:04.624Z,4
2017-05-06T03:33:04.564Z,4
2017-05-06T03:34:04.509Z,4
2017-05-06T03:35:04.437Z,4
2017-05-06T03:36:04.380Z,4
2017-05-06T03:37:04.309Z,4
2017-05-06T03:38:04.248Z,4
2017-05-06T03:39:04.190Z,4
2017-05-06T03:40:04.130Z,4
2017-05-06T03:41:04.062Z,4
2017-05-06T03:42:03.692Z,4
2017-05-06T03:43:03.627Z,4
2017-05-06T03:44:03.877Z,4
2017-05-06T03:45:03.813Z,4
2017-05-06T03:46:03.760Z,4
2017-05-06T03:47:03.685Z,4
2017-05-06T03:48:03.635Z,4
2017-05-06T03:49:03.569Z,4
2017-05-06T03:50:03.507Z,4
2017-05-06T03:51:03.440Z,4
2017-05-06T03:52:03.376Z,4
2017-05-06T03:53:03.316Z,4
2017-05-06T03:54:03.258Z,4
2017-05-06T03:55:03.196Z,4
2017-05-06T03:56:03.128Z,4
2017-05-06T03:57:03.074Z,4
2017-05-06T03:58:03.035Z,4
2017-05-06T03:59:02.941Z,4
2017-05-06T04:00:02.989Z,4
2017-05-06T04:01:02.824Z,8
2017-05-06T04:02:02.761Z,8
2017-05-06T04:03:02.702Z,8
2017-05-06T04:04:02.639Z,8
2017-05-06T04:05:02.576Z,8
2017-05-06T04:06:02.525Z,8
2017-05-06T04:07:02.447Z,8
2017-05-06T04:08:02.404Z,8
2017-05-06T04:09:02.327Z,4
2017-05-06T04:10:02.257Z,8
2017-05-06T04:11:02.199Z,8
2017-05-06T04:12:02.515Z,8
2017-05-06T04:13:02.090Z,8
2017-05-06T04:14:02.014Z,8
2017-05-06T04:15:01.951Z,8
2017-05-06T04:16:01.582Z,8
2017-05-06T04:17:01.832Z,8
2017-05-06T04:18:01.776Z,8
2017-05-06T04:19:01.397Z,8
2017-05-06T04:20:01.645Z,8
2017-05-06T04:21:01.576Z,8
2017-05-06T04:22:01.531Z,8
2017-05-06T04:23:01.452Z,8
2017-05-06T04:24:01.394Z,8
2017-05-06T04:25:01.338Z,4
2017-05-06T04:26:01.268Z,8
2017-05-06T04:27:00.898Z,8
2017-05-06T04:28:00.840Z,4
2017-05-06T04:29:01.096Z,4
2017-05-06T04:30:01.024Z,8
2017-05-06T04:31:00.964Z,8
2017-05-06T04:32:00.896Z,12
2017-05-06T04:33:00.860Z,12
2017-05-06T04:34:00.813Z,12
2017-05-06T04:35:00.729Z,12
2017-05-06T04:36:00.336Z,12
2017-05-06T04:37:00.585Z,8
2017-05-06T04:38:00.521Z,8
2017-05-06T04:39:00.471Z,12
2017-05-06T04:40:00.094Z,12
2017-05-06T04:41:00.022Z,12
2017-05-06T04:41:59.959Z,8
2017-05-06T04:43:00.211Z,12
2017-05-06T04:44:00.155Z,8
2017-05-06T04:45:00.096Z,12
2017-05-06T04:45:59.712Z,12
2017-05-06T04:46:59.651Z,8
2017-05-06T04:47:59.907Z,8
2017-05-06T04:48:59.853Z,8
2017-05-06T04:49:59.777Z,12
2017-05-06T04:50:59.719Z,12
2017-05-06T04:51:59.650Z,8
2017-05-06T04:52:59.593Z,8
2017-05-06T04:53:59.564Z,12
2017-05-06T04:54:59.490Z,8
2017-05-06T04:55:59.423Z,12
2017-05-06T04:56:59.343Z,12
2017-05-06T04:57:59.283Z,12
2017-05-06T04:58:59.221Z,12
2017-05-06T04:59:59.161Z,12
2017-05-06T05:00:59.099Z,12
2017-05-06T05:01:59.036Z,12
2017-05-06T05:02:58.977Z,12
2017-05-06T05:03:58.906Z,12
2017-05-06T05:04:58.847Z,8
2017-05-06T05:05:58.791Z,8
2017-05-06T05:06:58.733Z,12
2017-05-06T05:07:58.658Z,8
2017-05-06T05:08:58.630Z,12
2017-05-06T05:09:58.226Z,8
2017-05-06T05:10:58.567Z,12
2017-05-06T05:11:58.419Z,16
2017-05-06T05:12:58.346Z,12
2017-05-06T05:13:58.294Z,12
2017-05-06T05:14:58.236Z,16
2017-05-06T05:15:58.159Z,16
2017-05-06T05:16:58.103Z,16
2017-05-06T05:17:58.039Z,16
2017-05-06T05:18:57.972Z,16
2017-05-06T05:19:57.914Z,12
2017-05-06T05:20:57.542Z,12
2017-05-06T05:21:57.788Z,12
2017-05-06T05:22:57.721Z,12
2017-05-06T05:23:57.670Z,12
2017-05-06T05:24:58.005Z,12
2017-05-06T05:25:57.544Z,16
2017-05-06T05:26:57.479Z,16
2017-05-06T05:27:57.418Z,16
2017-05-06T05:28:57.361Z,12
2017-05-06T05:29:57.292Z,12
2017-05-06T05:30:57.234Z,12
2017-05-06T05:31:57.183Z,16
2017-05-06T05:32:57.106Z,16
2017-05-06T05:33:57.045Z,16
2017-05-06T05:34:56.985Z,16
2017-05-06T05:35:56.920Z,16
2017-05-06T05:36:56.858Z,20
2017-05-06T05:37:56.802Z,20
2017-05-06T05:38:56.730Z,24
2017-05-06T05:39:56.359Z,20
2017-05-06T05:40:56.603Z,24
2017-05-06T05:41:56.541Z,20
2017-05-06T05:42:56.488Z,20
2017-05-06T05:43:56.426Z,20
2017-05-06T05:44:56.375Z,20
2017-05-06T05:45:56.297Z,20
2017-05-06T05:46:56.233Z,24
2017-05-06T05:47:56.204Z,20
2017-05-06T05:48:56.124Z,20
2017-05-06T05:49:56.057Z,20
2017-05-06T05:50:55.987Z,24
2017-05-06T05:51:55.952Z,28
2017-05-06T05:52:55.863Z,32
2017-05-06T05:53:55.793Z,32
2017-05-06T05:54:55.737Z,32
2017-05-06T05:55:55.684Z,28
2017-05-06T05:56:55.991Z,28
2017-05-06T05:57:55.584Z,28
2017-05-06T05:58:55.517Z,24
2017-05-06T05:59:55.427Z,28
2017-05-06T06:00:55.380Z,28
2017-05-06T06:01:55.309Z,24
2017-05-06T06:02:55.244Z,24
2017-05-06T06:03:55.181Z,24
2017-05-06T06:04:55.120Z,24
2017-05-06T06:05:55.049Z,24
2017-05-06T06:06:54.992Z,28
2017-05-06T06:07:54.623Z,24
2017-05-06T06:08:54.870Z,28
2017-05-06T06:09:54.803Z,24
2017-05-06T06:10:54.751Z,28
2017-05-06T06:11:54.681Z,28
2017-05-06T06:12:54.658Z,24
2017-05-06T06:13:54.573Z,28
2017-05-06T06:14:54.191Z,28
2017-05-06T06:15:54.438Z,32
2017-05-06T06:16:54.740Z,28
2017-05-06T06:17:54.301Z,24
2017-05-06T06:18:54.240Z,28
2017-05-06T06:19:54.183Z,24
2017-05-06T06:20:54.118Z,32
2017-05-06T06:21:54.066Z,32
2017-05-06T06:22:53.992Z,32
2017-05-06T06:23:53.934Z,32
2017-05-06T06:24:53.875Z,28
2017-05-06T06:25:53.192Z,28
2017-05-06T06:26:53.750Z,28
2017-05-06T06:27:53.688Z,28
2017-05-06T06:28:53.623Z,32
2017-05-06T06:29:53.584Z,32
2017-05-06T06:30:53.526Z,32
2017-05-06T06:31:53.437Z,36
2017-05-06T06:32:53.379Z,36
2017-05-06T06:33:53.014Z,32
2017-05-06T06:34:53.249Z,32
2017-05-06T06:35:53.194Z,28
2017-05-06T06:36:53.129Z,28
2017-05-06T06:37:53.073Z,28
2017-05-06T06:38:52.688Z,32
2017-05-06T06:39:52.963Z,32
2017-05-06T06:40:52.887Z,36
2017-05-06T06:41:52.819Z,36
2017-05-06T06:42:52.752Z,32
2017-05-06T06:43:52.689Z,32
2017-05-06T06:44:52.627Z,28
2017-05-06T06:45:52.570Z,28
2017-05-06T06:46:52.504Z,32
2017-05-06T06:47:52.445Z,32
2017-05-06T06:48:52.380Z,28
2017-05-06T06:49:52.012Z,28
2017-05-06T06:50:52.362Z,28
2017-05-06T06:51:52.194Z,24
2017-05-06T06:52:52.501Z,24
2017-05-06T06:53:52.078Z,24
2017-05-06T06:54:51.699Z,24
2017-05-06T06:55:52.097Z,28
2017-05-06T06:56:51.567Z,32
2017-05-06T06:57:51.820Z,32
2017-05-06T06:58:51.756Z,32
2017-05-06T06:59:51.394Z,32
2017-05-06T07:00:51.326Z,28
2017-05-06T07:01:51.572Z,32
2017-05-06T07:02:51.510Z,32
2017-05-06T07:03:51.448Z,32
2017-05-06T07:04:51.387Z,32
2017-05-06T07:05:51.018Z,32
2017-05-06T07:06:51.266Z,32
2017-05-06T07:07:51.196Z,32
2017-05-06T07:08:51.137Z,28
2017-05-06T07:09:51.075Z,28
2017-05-06T07:10:51.021Z,28
2017-05-06T07:11:50.951Z,28
2017-05-06T07:12:50.889Z,28
2017-05-06T07:13:50.825Z,28
2017-05-06T07:14:50.763Z,28
2017-05-06T07:15:50.704Z,28
2017-05-06T07:16:51.011Z,32
2017-05-06T07:17:50.581Z,32
2017-05-06T07:18:50.203Z,32
2017-05-06T07:19:50.150Z,32
2017-05-06T07:20:50.390Z,28
2017-05-06T07:21:50.327Z,28
2017-05-06T07:22:50.266Z,28
2017-05-06T07:23:50.211Z,20
2017-05-06T07:24:50.164Z,20
2017-05-06T07:25:49.776Z,20
2017-05-06T07:26:50.017Z,20
2017-05-06T07:27:49.964Z,20
2017-05-06T07:28:49.907Z,20
2017-05-06T07:29:49.829Z,24
2017-05-06T07:30:49.777Z,24
2017-05-06T07:31:49.705Z,24
2017-05-06T07:32:49.654Z,28
2017-05-06T07:33:49.607Z,32
2017-05-06T07:34:49.516Z,28
2017-05-06T07:35:49.455Z,28
2017-05-06T07:36:49.393Z,28
2017-05-06T07:37:49.029Z,28
2017-05-06T07:38:49.291Z,28
2017-05-06T07:39:49.212Z,28
2017-05-06T07:40:49.397Z,24
2017-05-06T07:41:49.092Z,24
2017-05-06T07:42:48.722Z,24
2017-05-06T07:43:48.959Z,28
2017-05-06T07:44:48.898Z,28
2017-05-06T07:45:48.681Z,28
2017-05-06T07:46:48.775Z,24
2017-05-06T07:47:48.707Z,24
2017-05-06T07:48:48.651Z,28
2017-05-06T07:49:48.276Z,28
2017-05-06T07:50:48.779Z,28
2017-05-06T07:51:48.465Z,28
2017-05-06T07:52:48.398Z,32
2017-05-06T07:53:48.336Z,28
2017-05-06T07:54:48.275Z,28
2017-05-06T07:55:48.225Z,28
2017-05-06T07:56:48.152Z,32
2017-05-06T07:57:48.091Z,36
2017-05-06T07:58:48.034Z,36
2017-05-06T07:59:47.653Z,36
2017-05-06T08:00:47.906Z,36
2017-05-06T08:01:47.838Z,44
2017-05-06T08:02:47.773Z,44
2017-05-06T08:03:47.717Z,44
2017-05-06T08:04:47.652Z,48
2017-05-06T08:05:47.280Z,48
2017-05-06T08:06:47.532Z,52
2017-05-06T08:07:47.467Z,52
2017-05-06T08:08:47.416Z,52
2017-05-06T08:09:47.338Z,56
2017-05-06T08:10:47.383Z,56
2017-05-06T08:11:47.219Z,64
2017-05-06T08:12:47.160Z,64
2017-05-06T08:13:47.098Z,64
2017-05-06T08:14:47.033Z,64
2017-05-06T08:15:47.117Z,64
2017-05-06T08:16:46.620Z,64
2017-05-06T08:17:46.843Z,64
2017-05-06T08:18:47.159Z,68
2017-05-06T08:19:46.720Z,64
2017-05-06T08:20:46.804Z,72
2017-05-06T08:21:46.595Z,72
2017-05-06T08:22:46.530Z,72
2017-05-06T08:23:46.471Z,72
2017-05-06T08:24:46.413Z,88
2017-05-06T08:25:46.597Z,104
2017-05-06T08:26:46.282Z,108
2017-05-06T08:27:45.941Z,108
2017-05-06T08:28:46.166Z,100
2017-05-06T08:29:46.099Z,92
2017-05-06T08:30:46.039Z,88
2017-05-06T08:31:45.977Z,88
2017-05-06T08:32:45.912Z,80
2017-05-06T08:33:45.846Z,76
2017-05-06T08:34:45.788Z,76
2017-05-06T08:35:45.722Z,88
2017-05-06T08:36:45.665Z,88
2017-05-06T08:37:45.602Z,100
2017-05-06T08:38:45.539Z,88
2017-05-06T08:39:45.162Z,88
2017-05-06T08:40:45.412Z,88
2017-05-06T08:41:45.347Z,92
2017-05-06T08:42:45.290Z,100
2017-05-06T08:43:45.223Z,84
2017-05-06T08:44:45.165Z,76
2017-05-06T08:45:45.102Z,84
2017-05-06T08:46:45.037Z,76
2017-05-06T08:47:44.978Z,68
2017-05-06T08:48:44.919Z,72
2017-05-06T08:49:44.861Z,80
2017-05-06T08:50:44.792Z,80
2017-05-06T08:51:44.730Z,76
2017-05-06T08:52:44.666Z,72
2017-05-06T08:53:44.977Z,80
2017-05-06T08:54:44.232Z,84
2017-05-06T08:55:44.579Z,96
2017-05-06T08:56:44.417Z,104
2017-05-06T08:57:44.746Z,96
2017-05-06T08:58:43.679Z,100
2017-05-06T08:59:44.226Z,88
2017-05-06T09:00:43.715Z,100
2017-05-06T09:01:43.795Z,80
2017-05-06T09:02:44.048Z,84
2017-05-06T09:03:43.977Z,76
2017-05-06T09:04:43.611Z,72
2017-05-06T09:05:44.114Z,76
2017-05-06T09:06:43.793Z,72
2017-05-06T09:07:43.733Z,76
2017-05-06T09:08:43.671Z,88
2017-05-06T09:09:43.610Z,128
2017-05-06T09:10:43.543Z,96
2017-05-06T09:11:43.481Z,100
2017-05-06T09:12:43.433Z,96
2017-05-06T09:13:43.048Z,108
2017-05-06T09:14:43.299Z,108
2017-05-06T09:15:43.232Z,100
2017-05-06T09:16:43.204Z,104
2017-05-06T09:17:43.108Z,92
2017-05-06T09:18:43.046Z,96
2017-05-06T09:19:42.981Z,100
2017-05-06T09:20:43.023Z,88
2017-05-06T09:21:42.867Z,88
2017-05-06T09:22:42.179Z,88
2017-05-06T09:23:42.429Z,84
2017-05-06T09:24:42.673Z,84
2017-05-06T09:25:42.861Z,84
2017-05-06T09:26:42.926Z,88
2017-05-06T09:27:42.511Z,96
2017-05-06T09:28:42.425Z,112
2017-05-06T09:29:42.365Z,136
2017-05-06T09:30:42.306Z,116
2017-05-06T09:31:42.617Z,112
2017-05-06T09:32:42.178Z,112
2017-05-06T09:33:41.818Z,72
2017-05-06T09:34:42.054Z,84
2017-05-06T09:35:41.989Z,76
2017-05-06T09:36:41.930Z,72
2017-05-06T09:37:41.872Z,60
2017-05-06T09:38:41.810Z,56
2017-05-06T09:39:41.742Z,56
2017-05-06T09:40:41.443Z,52
2017-05-06T09:41:41.309Z,52
2017-05-06T09:42:41.560Z,60
2017-05-06T09:43:41.488Z,56
2017-05-06T09:44:41.431Z,56
2017-05-06T09:45:41.370Z,64
2017-05-06T09:46:41.305Z,100
2017-05-06T09:47:41.244Z,68
2017-05-06T09:48:41.184Z,52
2017-05-06T09:49:41.147Z,52
2017-05-06T09:50:40.753Z,52
2017-05-06T09:51:41.000Z,44
2017-05-06T09:52:40.318Z,44
2017-05-06T09:53:40.872Z,44
2017-05-06T09:54:40.809Z,48
2017-05-06T09:55:40.749Z,60
2017-05-06T09:56:40.689Z,60
2017-05-06T09:57:40.626Z,52
2017-05-06T09:58:40.578Z,48
2017-05-06T09:59:40.188Z,48
2017-05-06T10:00:40.669Z,44
2017-05-06T10:01:40.375Z,44
2017-05-06T10:02:40.310Z,44
2017-05-06T10:03:39.937Z,48
2017-05-06T10:04:40.184Z,60
2017-05-06T10:05:40.133Z,56
2017-05-06T10:06:40.059Z,76
2017-05-06T10:07:40.001Z,100
2017-05-06T10:08:39.349Z,88
2017-05-06T10:09:39.876Z,68
2017-05-06T10:10:39.511Z,88
2017-05-06T10:11:39.447Z,84
2017-05-06T10:12:39.691Z,88
2017-05-06T10:13:39.628Z,116
2017-05-06T10:14:39.260Z,112
2017-05-06T10:15:39.191Z,84
2017-05-06T10:16:39.128Z,80
2017-05-06T10:17:39.384Z,56
2017-05-06T10:18:39.681Z,56
2017-05-06T10:19:39.251Z,60
2017-05-06T10:20:39.192Z,76
2017-05-06T10:21:39.129Z,104
2017-05-06T10:22:38.760Z,104
2017-05-06T10:23:39.002Z,68
2017-05-06T10:24:38.940Z,68
2017-05-06T10:25:39.185Z,68
2017-05-06T10:26:38.813Z,72
2017-05-06T10:27:38.762Z,68
2017-05-06T10:28:38.694Z,72
2017-05-06T10:29:38.631Z,96
2017-05-06T10:30:38.816Z,88
2017-05-06T10:31:38.511Z,68
2017-05-06T10:32:38.443Z,60
2017-05-06T10:33:38.382Z,60
2017-05-06T10:34:38.327Z,76
2017-05-06T10:35:37.946Z,60
2017-05-06T10:36:37.892Z,56
2017-05-06T10:37:38.132Z,64
2017-05-06T10:38:38.068Z,68
2017-05-06T10:39:38.009Z,72
2017-05-06T10:40:37.961Z,68
2017-05-06T10:41:37.887Z,68
2017-05-06T10:42:37.823Z,64
2017-05-06T10:43:38.011Z,56
2017-05-06T10:44:37.701Z,56
2017-05-06T10:45:37.636Z,48
2017-05-06T10:46:37.569Z,44
2017-05-06T10:47:37.513Z,40
2017-05-06T10:48:37.449Z,36
2017-05-06T10:49:37.391Z,40
2017-05-06T10:50:37.334Z,44
2017-05-06T10:51:37.262Z,44
2017-05-06T10:52:36.332Z,44
2017-05-06T10:53:37.138Z,48
2017-05-06T10:54:37.083Z,56
2017-05-06T10:55:37.018Z,60
2017-05-06T10:56:36.664Z,60
2017-05-06T10:57:36.886Z,64
2017-05-06T10:58:36.826Z,64
2017-05-06T10:59:36.763Z,64
2017-05-06T11:00:36.767Z,64
2017-05-06T11:01:36.637Z,64
2017-05-06T11:02:36.602Z,64
2017-05-06T11:03:36.207Z,56
2017-05-06T11:04:36.446Z,48
2017-05-06T11:05:36.391Z,44
2017-05-06T11:06:36.330Z,40
2017-05-06T11:07:36.271Z,32
2017-05-06T11:08:36.209Z,32
2017-05-06T11:09:36.150Z,32
2017-05-06T11:10:36.089Z,32
2017-05-06T11:11:36.018Z,32
2017-05-06T11:12:35.963Z,32
2017-05-06T11:13:35.594Z,32
2017-05-06T11:14:35.538Z,32
2017-05-06T11:15:35.768Z,32
2017-05-06T11:16:35.711Z,32
2017-05-06T11:17:35.643Z,32
2017-05-06T11:18:35.587Z,28
2017-05-06T11:19:35.212Z,28
2017-05-06T11:20:35.640Z,28
2017-05-06T11:21:35.119Z,28
2017-05-06T11:22:35.027Z,28
2017-05-06T11:23:35.284Z,24
2017-05-06T11:24:35.207Z,24
2017-05-06T11:25:35.147Z,24
2017-05-06T11:26:34.797Z,24
2017-05-06T11:27:35.024Z,24
2017-05-06T11:28:34.649Z,28
2017-05-06T11:29:34.902Z,28
2017-05-06T11:30:34.838Z,28
2017-05-06T11:31:34.775Z,28
2017-05-06T11:32:34.717Z,28
2017-05-06T11:33:34.655Z,28
2017-05-06T11:34:34.280Z,28
2017-05-06T11:35:34.233Z,24
2017-05-06T11:36:34.483Z,24
2017-05-06T11:37:34.409Z,24
2017-05-06T11:38:34.345Z,24
2017-05-06T11:39:34.278Z,20
2017-05-06T11:40:34.214Z,24
2017-05-06T11:41:34.152Z,24
2017-05-06T11:42:33.815Z,20
2017-05-06T11:43:34.432Z,20
2017-05-06T11:44:33.390Z,20
2017-05-06T11:45:33.911Z,20
2017-05-06T11:46:33.846Z,20
2017-05-06T11:47:33.512Z,20
2017-05-06T11:48:33.748Z,20
2017-05-06T11:49:33.363Z,24
2017-05-06T11:50:33.632Z,24
2017-05-06T11:51:33.543Z,28
2017-05-06T11:52:33.473Z,32
2017-05-06T11:53:33.409Z,36
2017-05-06T11:54:33.347Z,40
2017-05-06T11:55:33.277Z,40
2017-05-06T11:56:33.221Z,40
2017-05-06T11:57:33.157Z,36
2017-05-06T11:58:33.097Z,36
2017-05-06T11:59:33.090Z,36
2017-05-06T12:00:32.841Z,36
2017-05-06T12:01:32.661Z,36
2017-05-06T12:02:32.859Z,40
2017-05-06T12:03:32.778Z,40
2017-05-06T12:04:32.725Z,40
2017-05-06T12:05:32.358Z,40
2017-05-06T12:06:32.599Z,40
2017-05-06T12:07:32.537Z,40
2017-05-06T12:08:32.478Z,40
2017-05-06T12:09:32.438Z,36
2017-05-06T12:10:31.745Z,32
2017-05-06T12:11:32.289Z,32
2017-05-06T12:12:31.926Z,32
2017-05-06T12:13:31.854Z,32
2017-05-06T12:14:31.812Z,36
2017-05-06T12:15:32.036Z,36
2017-05-06T12:16:31.733Z,40
2017-05-06T12:17:31.606Z,44
2017-05-06T12:18:31.856Z,52
2017-05-06T12:19:31.793Z,56
2017-05-06T12:20:31.417Z,64
2017-05-06T12:21:31.671Z,64
2017-05-06T12:22:31.300Z,64
2017-05-06T12:23:31.537Z,68
2017-05-06T12:24:31.493Z,64
2017-05-06T12:25:31.122Z,64
2017-05-06T12:26:31.352Z,72
2017-05-06T12:27:30.983Z,80
2017-05-06T12:28:30.922Z,76
2017-05-06T12:29:31.368Z,72
2017-05-06T12:30:31.114Z,72
2017-05-06T12:31:30.731Z,68
2017-05-06T12:32:30.992Z,72
2017-05-06T12:33:30.611Z,80
2017-05-06T12:34:31.240Z,80
2017-05-06T12:35:30.797Z,84
2017-05-06T12:36:30.422Z,72
2017-05-06T12:37:30.678Z,76
2017-05-06T12:38:30.639Z,68
2017-05-06T12:39:30.547Z,64
2017-05-06T12:40:30.483Z,68
2017-05-06T12:41:30.119Z,64
2017-05-06T12:42:30.403Z,64
2017-05-06T12:43:30.303Z,60
2017-05-06T12:44:29.937Z,64
2017-05-06T12:45:30.178Z,64
2017-05-06T12:46:30.109Z,68
2017-05-06T12:47:30.413Z,64
2017-05-06T12:48:29.987Z,60
2017-05-06T12:49:29.926Z,60
2017-05-06T12:50:29.869Z,60
2017-05-06T12:51:29.800Z,56
2017-05-06T12:52:29.736Z,56
2017-05-06T12:53:29.674Z,56
2017-05-06T12:54:30.001Z,56
2017-05-06T12:55:29.549Z,60
2017-05-06T12:56:29.490Z,60
2017-05-06T12:57:29.443Z,56
2017-05-06T12:58:29.378Z,56
2017-05-06T12:59:28.686Z,56
2017-05-06T13:00:29.243Z,52
2017-05-06T13:01:29.179Z,52
2017-05-06T13:02:29.113Z,52
2017-05-06T13:03:29.054Z,52
2017-05-06T13:04:28.990Z,52
2017-05-06T13:05:28.928Z,48
2017-05-06T13:06:28.867Z,48
2017-05-06T13:07:28.812Z,48
2017-05-06T13:08:28.746Z,48
2017-05-06T13:09:28.677Z,48
2017-05-06T13:10:28.616Z,48
2017-05-06T13:11:28.562Z,48
2017-05-06T13:12:28.533Z,52
2017-05-06T13:13:28.440Z,56
2017-05-06T13:14:28.371Z,56
2017-05-06T13:15:28.366Z,52
2017-05-06T13:16:28.246Z,56
2017-05-06T13:17:28.186Z,52
2017-05-06T13:18:28.146Z,52
2017-05-06T13:19:27.842Z,52
2017-05-06T13:20:28.002Z,48
2017-05-06T13:21:27.935Z,48
2017-05-06T13:22:28.242Z,48
2017-05-06T13:23:27.808Z,48
2017-05-06T13:24:27.443Z,44
2017-05-06T13:25:27.386Z,44
2017-05-06T13:26:27.330Z,44
2017-05-06T13:27:27.558Z,44
2017-05-06T13:28:27.507Z,44
2017-05-06T13:29:27.442Z,48
2017-05-06T13:30:27.381Z,44
2017-05-06T13:31:27.315Z,44
2017-05-06T13:32:26.950Z,48
2017-05-06T13:33:27.279Z,48
2017-05-06T13:34:27.192Z,48
2017-05-06T13:35:27.157Z,48
2017-05-06T13:36:26.713Z,48
2017-05-06T13:37:27.002Z,48
2017-05-06T13:38:26.927Z,48
2017-05-06T13:39:26.900Z,48
2017-05-06T13:40:26.816Z,52
2017-05-06T13:41:26.393Z,48
2017-05-06T13:42:26.030Z,52
2017-05-06T13:43:26.593Z,52
2017-05-06T13:44:26.533Z,52
2017-05-06T13:45:26.175Z,48
2017-05-06T13:46:26.138Z,52
2017-05-06T13:47:26.072Z,52
2017-05-06T13:48:25.958Z,48
2017-05-06T13:49:25.929Z,52
2017-05-06T13:50:26.148Z,56
2017-05-06T13:51:25.819Z,52
2017-05-06T13:52:26.019Z,48
2017-05-06T13:53:25.974Z,44
2017-05-06T13:54:25.895Z,40
2017-05-06T13:55:25.885Z,40
2017-05-06T13:56:25.782Z,40
2017-05-06T13:57:25.744Z,36
2017-05-06T13:58:25.643Z,40
2017-05-06T13:59:25.639Z,40
2017-05-06T14:00:25.563Z,36
2017-05-06T14:01:25.447Z,40
2017-05-06T14:02:25.387Z,40
2017-05-06T14:03:25.325Z,40
2017-05-06T14:04:25.270Z,44
2017-05-06T14:05:25.196Z,44
2017-05-06T14:06:25.140Z,44
2017-05-06T14:07:24.769Z,40
2017-05-06T14:08:25.014Z,40
2017-05-06T14:09:24.962Z,40
2017-05-06T14:10:24.886Z,40
2017-05-06T14:11:24.839Z,40
2017-05-06T14:12:24.762Z,40
2017-05-06T14:13:24.704Z,40
2017-05-06T14:14:24.677Z,44
2017-05-06T14:15:24.586Z,44
2017-05-06T14:16:24.202Z,44
2017-05-06T14:17:24.143Z,48
2017-05-06T14:18:24.389Z,52
2017-05-06T14:19:24.366Z,52
2017-05-06T14:20:24.264Z,48
2017-05-06T14:21:23.896Z,44
2017-05-06T14:22:24.146Z,44
2017-05-06T14:23:24.080Z,44
2017-05-06T14:24:23.397Z,40